sensor_id;sensor_type;location;lat;lon;timestamp;P1;durP1;ratioP1;P2;durP2;ratioP2
38499;SDS011;24269;51.894;4.622;2022-09-17T00:00:24;16.42;;;2.05;;
38499;SDS011;24269;51.894;4.622;2022-09-17T00:02:50;16.10;;;1.88;;
38499;SDS011;24269;51.894;4.622;2022-09-17T00:05:20;16.20;;;2.10;;
38499;SDS011;24269;51.894;4.622;2022-09-17T00:07:47;11.45;;;1.52;;
38499;SDS011;24269;51.894;4.622;2022-09-17T00:10:13;12.82;;;1.70;;
38499;SDS011;24269;51.894;4.622;2022-09-17T00:12:38;12.18;;;1.60;;
38499;SDS011;24269;51.894;4.622;2022-09-17T00:15:04;11.07;;;1.60;;
38499;SDS011;24269;51.894;4.622;2022-09-17T00:17:30;10.30;;;1.50;;
38499;SDS011;24269;51.894;4.622;2022-09-17T00:19:56;13.80;;;1.40;;
38499;SDS011;24269;51.894;4.622;2022-09-17T00:22:21;12.23;;;1.55;;
38499;SDS011;24269;51.894;4.622;2022-09-17T00:24:47;10.75;;;1.45;;
38499;SDS011;24269;51.894;4.622;2022-09-17T00:27:13;13.27;;;1.55;;
38499;SDS011;24269;51.894;4.622;2022-09-17T00:29:38;10.43;;;1.33;;
38499;SDS011;24269;51.894;4.622;2022-09-17T00:32:04;11.02;;;1.42;;
38499;SDS011;24269;51.894;4.622;2022-09-17T00:34:29;13.30;;;1.20;;
38499;SDS011;24269;51.894;4.622;2022-09-17T00:36:55;12.07;;;1.55;;
38499;SDS011;24269;51.894;4.622;2022-09-17T00:39:20;10.13;;;1.40;;
38499;SDS011;24269;51.894;4.622;2022-09-17T00:41:46;17.55;;;1.80;;
38499;SDS011;24269;51.894;4.622;2022-09-17T00:49:51;12.15;;;1.58;;
38499;SDS011;24269;51.894;4.622;2022-09-17T00:52:43;12.77;;;1.63;;
38499;SDS011;24269;51.894;4.622;2022-09-17T00:57:52;10.00;;;1.60;;
38499;SDS011;24269;51.894;4.622;2022-09-17T01:00:21;10.45;;;1.45;;
38499;SDS011;24269;51.894;4.622;2022-09-17T01:02:46;11.10;;;1.55;;
38499;SDS011;24269;51.894;4.622;2022-09-17T01:05:12;11.38;;;1.25;;
38499;SDS011;24269;51.894;4.622;2022-09-17T01:15:56;12.80;;;1.67;;
38499;SDS011;24269;51.894;4.622;2022-09-17T01:21:28;12.82;;;1.85;;
38499;SDS011;24269;51.894;4.622;2022-09-17T01:32:13;14.98;;;2.05;;
38499;SDS011;24269;51.894;4.622;2022-09-17T01:35:19;10.88;;;1.70;;
38499;SDS011;24269;51.894;4.622;2022-09-17T01:38:10;14.63;;;2.47;;
38499;SDS011;24269;51.894;4.622;2022-09-17T01:41:03;17.30;;;2.03;;
38499;SDS011;24269;51.894;4.622;2022-09-17T01:43:54;13.20;;;1.95;;
38499;SDS011;24269;51.894;4.622;2022-09-17T01:46:28;14.57;;;1.70;;
38499;SDS011;24269;51.894;4.622;2022-09-17T01:48:58;14.43;;;1.70;;
38499;SDS011;24269;51.894;4.622;2022-09-17T01:51:29;12.80;;;1.77;;
38499;SDS011;24269;51.894;4.622;2022-09-17T01:56:37;17.17;;;1.88;;
38499;SDS011;24269;51.894;4.622;2022-09-17T01:59:10;11.98;;;1.98;;
38499;SDS011;24269;51.894;4.622;2022-09-17T02:01:40;14.15;;;1.58;;
38499;SDS011;24269;51.894;4.622;2022-09-17T02:04:14;10.98;;;1.48;;
38499;SDS011;24269;51.894;4.622;2022-09-17T02:06:46;15.27;;;2.35;;
38499;SDS011;24269;51.894;4.622;2022-09-17T02:09:20;19.67;;;2.47;;
38499;SDS011;24269;51.894;4.622;2022-09-17T02:11:52;17.00;;;2.30;;
38499;SDS011;24269;51.894;4.622;2022-09-17T02:14:30;19.58;;;2.00;;
38499;SDS011;24269;51.894;4.622;2022-09-17T02:17:04;14.52;;;1.75;;
38499;SDS011;24269;51.894;4.622;2022-09-17T02:19:38;16.13;;;2.45;;
38499;SDS011;24269;51.894;4.622;2022-09-17T02:22:13;15.30;;;2.05;;
38499;SDS011;24269;51.894;4.622;2022-09-17T02:30:12;18.15;;;2.03;;
38499;SDS011;24269;51.894;4.622;2022-09-17T02:32:38;21.02;;;2.80;;
38499;SDS011;24269;51.894;4.622;2022-09-17T02:35:04;17.10;;;2.20;;
38499;SDS011;24269;51.894;4.622;2022-09-17T02:37:30;14.48;;;1.98;;
38499;SDS011;24269;51.894;4.622;2022-09-17T02:39:56;18.40;;;2.17;;
38499;SDS011;24269;51.894;4.622;2022-09-17T02:42:26;16.35;;;2.00;;
38499;SDS011;24269;51.894;4.622;2022-09-17T02:48:03;12.18;;;1.42;;
38499;SDS011;24269;51.894;4.622;2022-09-17T03:00:51;17.02;;;1.88;;
38499;SDS011;24269;51.894;4.622;2022-09-17T03:03:20;20.58;;;2.72;;
38499;SDS011;24269;51.894;4.622;2022-09-17T03:05:53;16.63;;;2.05;;
38499;SDS011;24269;51.894;4.622;2022-09-17T03:08:26;17.23;;;2.42;;
38499;SDS011;24269;51.894;4.622;2022-09-17T03:11:04;16.80;;;1.92;;
38499;SDS011;24269;51.894;4.622;2022-09-17T03:13:30;18.13;;;2.30;;
38499;SDS011;24269;51.894;4.622;2022-09-17T03:15:56;15.25;;;2.00;;
38499;SDS011;24269;51.894;4.622;2022-09-17T03:18:22;19.00;;;2.15;;
38499;SDS011;24269;51.894;4.622;2022-09-17T03:20:48;12.45;;;1.60;;
38499;SDS011;24269;51.894;4.622;2022-09-17T03:23:14;13.02;;;1.73;;
38499;SDS011;24269;51.894;4.622;2022-09-17T03:25:40;15.05;;;2.30;;
38499;SDS011;24269;51.894;4.622;2022-09-17T03:28:05;14.43;;;1.80;;
38499;SDS011;24269;51.894;4.622;2022-09-17T03:30:31;10.82;;;1.70;;
38499;SDS011;24269;51.894;4.622;2022-09-17T03:32:57;9.45;;;1.63;;
38499;SDS011;24269;51.894;4.622;2022-09-17T03:35:22;14.45;;;1.70;;
38499;SDS011;24269;51.894;4.622;2022-09-17T03:37:48;11.48;;;1.73;;
38499;SDS011;24269;51.894;4.622;2022-09-17T03:40:13;13.65;;;1.65;;
38499;SDS011;24269;51.894;4.622;2022-09-17T03:42:39;13.73;;;1.85;;
38499;SDS011;24269;51.894;4.622;2022-09-17T03:45:05;9.07;;;1.10;;
38499;SDS011;24269;51.894;4.622;2022-09-17T03:47:31;13.68;;;1.50;;
38499;SDS011;24269;51.894;4.622;2022-09-17T03:49:56;13.57;;;1.88;;
38499;SDS011;24269;51.894;4.622;2022-09-17T03:52:22;9.45;;;1.45;;
38499;SDS011;24269;51.894;4.622;2022-09-17T03:54:47;14.20;;;1.70;;
38499;SDS011;24269;51.894;4.622;2022-09-17T03:57:13;11.57;;;1.45;;
38499;SDS011;24269;51.894;4.622;2022-09-17T03:59:39;13.38;;;1.42;;
38499;SDS011;24269;51.894;4.622;2022-09-17T04:02:04;13.85;;;1.65;;
38499;SDS011;24269;51.894;4.622;2022-09-17T04:04:30;15.18;;;2.05;;
38499;SDS011;24269;51.894;4.622;2022-09-17T04:06:56;11.38;;;1.70;;
38499;SDS011;24269;51.894;4.622;2022-09-17T04:09:22;12.77;;;1.67;;
38499;SDS011;24269;51.894;4.622;2022-09-17T04:11:47;13.52;;;1.60;;
38499;SDS011;24269;51.894;4.622;2022-09-17T04:14:13;11.95;;;1.63;;
38499;SDS011;24269;51.894;4.622;2022-09-17T04:16:38;16.13;;;1.95;;
38499;SDS011;24269;51.894;4.622;2022-09-17T04:19:04;16.67;;;1.63;;
38499;SDS011;24269;51.894;4.622;2022-09-17T04:21:30;13.95;;;1.70;;
38499;SDS011;24269;51.894;4.622;2022-09-17T04:23:55;12.43;;;1.60;;
38499;SDS011;24269;51.894;4.622;2022-09-17T04:26:21;11.30;;;1.60;;
38499;SDS011;24269;51.894;4.622;2022-09-17T04:28:46;11.98;;;2.00;;
38499;SDS011;24269;51.894;4.622;2022-09-17T04:31:12;13.23;;;2.00;;
38499;SDS011;24269;51.894;4.622;2022-09-17T04:33:37;11.95;;;1.40;;
38499;SDS011;24269;51.894;4.622;2022-09-17T04:36:03;16.80;;;2.10;;
38499;SDS011;24269;51.894;4.622;2022-09-17T04:38:29;13.63;;;1.80;;
38499;SDS011;24269;51.894;4.622;2022-09-17T04:40:54;11.30;;;1.63;;
38499;SDS011;24269;51.894;4.622;2022-09-17T04:43:21;16.15;;;1.67;;
38499;SDS011;24269;51.894;4.622;2022-09-17T04:45:47;17.40;;;2.20;;
38499;SDS011;24269;51.894;4.622;2022-09-17T04:48:13;12.15;;;1.80;;
38499;SDS011;24269;51.894;4.622;2022-09-17T04:50:39;13.40;;;2.00;;
38499;SDS011;24269;51.894;4.622;2022-09-17T04:53:04;11.98;;;2.25;;
38499;SDS011;24269;51.894;4.622;2022-09-17T04:55:30;11.35;;;1.65;;
38499;SDS011;24269;51.894;4.622;2022-09-17T04:57:56;12.88;;;1.85;;
38499;SDS011;24269;51.894;4.622;2022-09-17T05:00:22;10.48;;;1.98;;
38499;SDS011;24269;51.894;4.622;2022-09-17T05:02:48;20.48;;;2.20;;
38499;SDS011;24269;51.894;4.622;2022-09-17T05:05:16;11.20;;;1.77;;
38499;SDS011;24269;51.894;4.622;2022-09-17T05:07:42;13.00;;;1.67;;
38499;SDS011;24269;51.894;4.622;2022-09-17T05:10:09;12.00;;;1.77;;
38499;SDS011;24269;51.894;4.622;2022-09-17T05:12:35;8.10;;;1.15;;
38499;SDS011;24269;51.894;4.622;2022-09-17T05:15:01;14.88;;;1.65;;
38499;SDS011;24269;51.894;4.622;2022-09-17T05:17:28;9.15;;;1.27;;
38499;SDS011;24269;51.894;4.622;2022-09-17T05:19:53;14.05;;;1.70;;
38499;SDS011;24269;51.894;4.622;2022-09-17T05:22:19;12.13;;;1.60;;
38499;SDS011;24269;51.894;4.622;2022-09-17T05:24:45;9.52;;;1.27;;
38499;SDS011;24269;51.894;4.622;2022-09-17T05:27:10;13.50;;;1.38;;
38499;SDS011;24269;51.894;4.622;2022-09-17T05:29:36;7.72;;;1.38;;
38499;SDS011;24269;51.894;4.622;2022-09-17T05:32:02;15.13;;;1.60;;
38499;SDS011;24269;51.894;4.622;2022-09-17T05:34:28;10.60;;;1.30;;
38499;SDS011;24269;51.894;4.622;2022-09-17T05:36:54;8.50;;;1.05;;
38499;SDS011;24269;51.894;4.622;2022-09-17T05:39:20;12.50;;;1.60;;
38499;SDS011;24269;51.894;4.622;2022-09-17T05:41:49;13.50;;;1.63;;
38499;SDS011;24269;51.894;4.622;2022-09-17T05:44:18;14.18;;;1.42;;
38499;SDS011;24269;51.894;4.622;2022-09-17T05:46:44;12.77;;;1.30;;
38499;SDS011;24269;51.894;4.622;2022-09-17T05:49:11;13.07;;;2.05;;
38499;SDS011;24269;51.894;4.622;2022-09-17T05:51:39;9.88;;;1.15;;
38499;SDS011;24269;51.894;4.622;2022-09-17T05:54:05;8.18;;;1.10;;
38499;SDS011;24269;51.894;4.622;2022-09-17T05:56:31;10.65;;;1.30;;
38499;SDS011;24269;51.894;4.622;2022-09-17T05:58:56;9.95;;;1.52;;
38499;SDS011;24269;51.894;4.622;2022-09-17T06:01:22;10.57;;;1.50;;
38499;SDS011;24269;51.894;4.622;2022-09-17T06:03:48;11.50;;;1.40;;
38499;SDS011;24269;51.894;4.622;2022-09-17T06:06:14;12.30;;;1.58;;
38499;SDS011;24269;51.894;4.622;2022-09-17T06:08:40;13.80;;;1.58;;
38499;SDS011;24269;51.894;4.622;2022-09-17T06:11:06;11.63;;;1.50;;
38499;SDS011;24269;51.894;4.622;2022-09-17T06:13:32;9.95;;;1.25;;
38499;SDS011;24269;51.894;4.622;2022-09-17T06:15:58;11.98;;;1.70;;
38499;SDS011;24269;51.894;4.622;2022-09-17T06:18:25;11.55;;;1.55;;
38499;SDS011;24269;51.894;4.622;2022-09-17T06:20:52;14.38;;;1.90;;
38499;SDS011;24269;51.894;4.622;2022-09-17T06:23:19;8.57;;;2.17;;
38499;SDS011;24269;51.894;4.622;2022-09-17T06:25:49;14.05;;;2.20;;
38499;SDS011;24269;51.894;4.622;2022-09-17T06:28:19;8.57;;;1.90;;
38499;SDS011;24269;51.894;4.622;2022-09-17T06:30:45;12.48;;;1.80;;
38499;SDS011;24269;51.894;4.622;2022-09-17T06:33:11;17.27;;;2.03;;
38499;SDS011;24269;51.894;4.622;2022-09-17T06:35:37;9.98;;;1.85;;
38499;SDS011;24269;51.894;4.622;2022-09-17T06:38:03;15.68;;;2.00;;
38499;SDS011;24269;51.894;4.622;2022-09-17T06:40:29;13.80;;;1.95;;
38499;SDS011;24269;51.894;4.622;2022-09-17T06:42:58;11.77;;;1.60;;
38499;SDS011;24269;51.894;4.622;2022-09-17T06:45:24;10.68;;;1.83;;
38499;SDS011;24269;51.894;4.622;2022-09-17T06:47:52;12.70;;;1.83;;
38499;SDS011;24269;51.894;4.622;2022-09-17T06:50:28;11.70;;;1.40;;
38499;SDS011;24269;51.894;4.622;2022-09-17T06:52:53;11.82;;;1.50;;
38499;SDS011;24269;51.894;4.622;2022-09-17T06:55:19;6.65;;;1.35;;
38499;SDS011;24269;51.894;4.622;2022-09-17T06:57:47;8.20;;;1.20;;
38499;SDS011;24269;51.894;4.622;2022-09-17T07:00:13;11.45;;;1.50;;
38499;SDS011;24269;51.894;4.622;2022-09-17T07:02:39;12.63;;;1.67;;
38499;SDS011;24269;51.894;4.622;2022-09-17T07:05:06;11.75;;;1.58;;
38499;SDS011;24269;51.894;4.622;2022-09-17T07:07:34;8.15;;;1.02;;
38499;SDS011;24269;51.894;4.622;2022-09-17T07:10:01;11.18;;;1.08;;
38499;SDS011;24269;51.894;4.622;2022-09-17T07:12:29;8.57;;;1.33;;
38499;SDS011;24269;51.894;4.622;2022-09-17T07:14:56;10.88;;;1.40;;
38499;SDS011;24269;51.894;4.622;2022-09-17T07:17:24;12.07;;;1.40;;
38499;SDS011;24269;51.894;4.622;2022-09-17T07:19:52;9.82;;;1.55;;
38499;SDS011;24269;51.894;4.622;2022-09-17T07:22:18;10.57;;;1.58;;
38499;SDS011;24269;51.894;4.622;2022-09-17T07:24:44;11.45;;;1.42;;
38499;SDS011;24269;51.894;4.622;2022-09-17T07:27:10;10.85;;;1.42;;
38499;SDS011;24269;51.894;4.622;2022-09-17T07:29:36;10.48;;;1.23;;
38499;SDS011;24269;51.894;4.622;2022-09-17T07:32:01;7.78;;;1.25;;
38499;SDS011;24269;51.894;4.622;2022-09-17T07:34:27;6.18;;;1.00;;
38499;SDS011;24269;51.894;4.622;2022-09-17T07:36:53;6.30;;;1.30;;
38499;SDS011;24269;51.894;4.622;2022-09-17T07:39:18;5.93;;;1.67;;
38499;SDS011;24269;51.894;4.622;2022-09-17T07:41:44;10.05;;;2.20;;
38499;SDS011;24269;51.894;4.622;2022-09-17T07:44:09;10.02;;;6.18;;
38499;SDS011;24269;51.894;4.622;2022-09-17T07:46:35;8.48;;;2.40;;
38499;SDS011;24269;51.894;4.622;2022-09-17T07:49:00;7.45;;;1.88;;
38499;SDS011;24269;51.894;4.622;2022-09-17T07:51:26;36.90;;;29.27;;
38499;SDS011;24269;51.894;4.622;2022-09-17T07:53:56;37.10;;;27.50;;
38499;SDS011;24269;51.894;4.622;2022-09-17T07:56:23;24.83;;;13.57;;
38499;SDS011;24269;51.894;4.622;2022-09-17T07:58:49;18.65;;;7.70;;
38499;SDS011;24269;51.894;4.622;2022-09-17T08:01:16;8.57;;;3.13;;
38499;SDS011;24269;51.894;4.622;2022-09-17T08:03:42;12.35;;;6.43;;
38499;SDS011;24269;51.894;4.622;2022-09-17T08:06:13;39.92;;;24.65;;
38499;SDS011;24269;51.894;4.622;2022-09-17T08:08:40;30.42;;;15.65;;
38499;SDS011;24269;51.894;4.622;2022-09-17T08:11:10;52.80;;;24.17;;
38499;SDS011;24269;51.894;4.622;2022-09-17T08:13:38;12.68;;;3.55;;
38499;SDS011;24269;51.894;4.622;2022-09-17T08:16:08;11.98;;;2.25;;
38499;SDS011;24269;51.894;4.622;2022-09-17T08:18:37;9.20;;;1.60;;
38499;SDS011;24269;51.894;4.622;2022-09-17T08:21:04;7.28;;;1.40;;
38499;SDS011;24269;51.894;4.622;2022-09-17T08:23:32;9.88;;;1.30;;
38499;SDS011;24269;51.894;4.622;2022-09-17T08:26:02;7.47;;;1.10;;
38499;SDS011;24269;51.894;4.622;2022-09-17T08:28:31;5.43;;;1.00;;
38499;SDS011;24269;51.894;4.622;2022-09-17T08:31:06;8.73;;;1.30;;
38499;SDS011;24269;51.894;4.622;2022-09-17T08:33:34;5.80;;;1.35;;
38499;SDS011;24269;51.894;4.622;2022-09-17T08:36:01;9.70;;;2.85;;
38499;SDS011;24269;51.894;4.622;2022-09-17T08:38:27;9.55;;;1.52;;
38499;SDS011;24269;51.894;4.622;2022-09-17T08:46:49;23.85;;;12.25;;
38499;SDS011;24269;51.894;4.622;2022-09-17T08:57:52;6.38;;;0.85;;
38499;SDS011;24269;51.894;4.622;2022-09-17T09:00:49;5.13;;;1.80;;
38499;SDS011;24269;51.894;4.622;2022-09-17T09:06:20;5.30;;;0.90;;
38499;SDS011;24269;51.894;4.622;2022-09-17T09:08:55;9.73;;;1.15;;
38499;SDS011;24269;51.894;4.622;2022-09-17T09:11:28;6.75;;;1.30;;
38499;SDS011;24269;51.894;4.622;2022-09-17T09:16:45;7.43;;;1.00;;
38499;SDS011;24269;51.894;4.622;2022-09-17T09:19:22;6.68;;;1.05;;
38499;SDS011;24269;51.894;4.622;2022-09-17T09:24:50;9.23;;;0.95;;
38499;SDS011;24269;51.894;4.622;2022-09-17T09:27:38;8.70;;;0.98;;
38499;SDS011;24269;51.894;4.622;2022-09-17T09:30:11;6.47;;;0.93;;
38499;SDS011;24269;51.894;4.622;2022-09-17T09:35:13;6.55;;;0.90;;
38499;SDS011;24269;51.894;4.622;2022-09-17T09:37:43;5.60;;;0.80;;
38499;SDS011;24269;51.894;4.622;2022-09-17T09:40:22;6.43;;;0.80;;
38499;SDS011;24269;51.894;4.622;2022-09-17T09:43:14;7.40;;;0.82;;
38499;SDS011;24269;51.894;4.622;2022-09-17T09:51:19;8.43;;;0.80;;
38499;SDS011;24269;51.894;4.622;2022-09-17T09:56:56;6.88;;;0.93;;
38499;SDS011;24269;51.894;4.622;2022-09-17T09:59:24;4.35;;;0.70;;
38499;SDS011;24269;51.894;4.622;2022-09-17T10:03:33;7.88;;;0.90;;
38499;SDS011;24269;51.894;4.622;2022-09-17T10:06:03;5.72;;;0.98;;
38499;SDS011;24269;51.894;4.622;2022-09-17T10:08:33;11.98;;;1.20;;
38499;SDS011;24269;51.894;4.622;2022-09-17T10:13:33;6.32;;;1.17;;
38499;SDS011;24269;51.894;4.622;2022-09-17T10:18:42;6.95;;;1.08;;
38499;SDS011;24269;51.894;4.622;2022-09-17T10:21:17;7.97;;;0.90;;
38499;SDS011;24269;51.894;4.622;2022-09-17T10:23:45;4.60;;;0.90;;
38499;SDS011;24269;51.894;4.622;2022-09-17T10:26:21;7.95;;;1.35;;
38499;SDS011;24269;51.894;4.622;2022-09-17T10:29:01;13.25;;;1.45;;
38499;SDS011;24269;51.894;4.622;2022-09-17T10:31:44;9.55;;;1.35;;
38499;SDS011;24269;51.894;4.622;2022-09-17T10:34:18;10.02;;;1.20;;
38499;SDS011;24269;51.894;4.622;2022-09-17T10:36:46;12.57;;;1.70;;
38499;SDS011;24269;51.894;4.622;2022-09-17T10:39:26;9.95;;;1.27;;
38499;SDS011;24269;51.894;4.622;2022-09-17T10:42:04;8.60;;;1.60;;
38499;SDS011;24269;51.894;4.622;2022-09-17T10:44:34;10.10;;;1.40;;
38499;SDS011;24269;51.894;4.622;2022-09-17T10:47:05;10.32;;;1.40;;
38499;SDS011;24269;51.894;4.622;2022-09-17T10:49:35;7.13;;;1.30;;
38499;SDS011;24269;51.894;4.622;2022-09-17T10:52:05;11.20;;;1.52;;
38499;SDS011;24269;51.894;4.622;2022-09-17T10:57:36;10.48;;;1.60;;
38499;SDS011;24269;51.894;4.622;2022-09-17T11:00:22;13.15;;;1.45;;
38499;SDS011;24269;51.894;4.622;2022-09-17T11:08:39;9.55;;;1.40;;
38499;SDS011;24269;51.894;4.622;2022-09-17T11:11:09;11.70;;;1.55;;
38499;SDS011;24269;51.894;4.622;2022-09-17T11:19:22;10.40;;;1.55;;
38499;SDS011;24269;51.894;4.622;2022-09-17T11:25:31;9.68;;;1.40;;
38499;SDS011;24269;51.894;4.622;2022-09-17T11:31:16;10.55;;;1.67;;
38499;SDS011;24269;51.894;4.622;2022-09-17T11:36:24;9.27;;;1.65;;
38499;SDS011;24269;51.894;4.622;2022-09-17T11:38:56;10.07;;;1.75;;
38499;SDS011;24269;51.894;4.622;2022-09-17T11:47:03;12.73;;;2.00;;
38499;SDS011;24269;51.894;4.622;2022-09-17T11:52:01;20.83;;;2.60;;
38499;SDS011;24269;51.894;4.622;2022-09-17T11:54:54;16.98;;;2.60;;
38499;SDS011;24269;51.894;4.622;2022-09-17T11:57:28;14.50;;;2.00;;
38499;SDS011;24269;51.894;4.622;2022-09-17T12:00:01;9.85;;;1.75;;
38499;SDS011;24269;51.894;4.622;2022-09-17T12:02:37;19.08;;;2.25;;
38499;SDS011;24269;51.894;4.622;2022-09-17T12:05:18;10.38;;;1.65;;
38499;SDS011;24269;51.894;4.622;2022-09-17T12:10:28;10.60;;;1.85;;
38499;SDS011;24269;51.894;4.622;2022-09-17T12:15:41;11.10;;;2.15;;
38499;SDS011;24269;51.894;4.622;2022-09-17T12:21:01;10.45;;;1.70;;
38499;SDS011;24269;51.894;4.622;2022-09-17T12:23:33;11.93;;;1.52;;
38499;SDS011;24269;51.894;4.622;2022-09-17T12:29:44;12.77;;;2.22;;
38499;SDS011;24269;51.894;4.622;2022-09-17T12:34:55;18.55;;;2.53;;
38499;SDS011;24269;51.894;4.622;2022-09-17T12:40:23;11.18;;;1.70;;
38499;SDS011;24269;51.894;4.622;2022-09-17T12:46:16;9.93;;;1.58;;
38499;SDS011;24269;51.894;4.622;2022-09-17T12:57:42;10.80;;;1.60;;
38499;SDS011;24269;51.894;4.622;2022-09-17T13:00:41;8.73;;;1.05;;
38499;SDS011;24269;51.894;4.622;2022-09-17T13:03:31;10.48;;;1.20;;
38499;SDS011;24269;51.894;4.622;2022-09-17T13:06:21;6.55;;;1.23;;
38499;SDS011;24269;51.894;4.622;2022-09-17T13:22:52;10.43;;;1.65;;
38499;SDS011;24269;51.894;4.622;2022-09-17T13:25:21;9.32;;;1.55;;
38499;SDS011;24269;51.894;4.622;2022-09-17T13:27:47;10.93;;;1.70;;
38499;SDS011;24269;51.894;4.622;2022-09-17T13:30:15;10.80;;;1.65;;
38499;SDS011;24269;51.894;4.622;2022-09-17T13:32:43;13.60;;;1.80;;
38499;SDS011;24269;51.894;4.622;2022-09-17T13:42:54;12.68;;;1.63;;
38499;SDS011;24269;51.894;4.622;2022-09-17T13:45:26;9.10;;;1.33;;
38499;SDS011;24269;51.894;4.622;2022-09-17T13:52:51;11.70;;;1.95;;
38499;SDS011;24269;51.894;4.622;2022-09-17T13:55:33;9.85;;;1.65;;
38499;SDS011;24269;51.894;4.622;2022-09-17T14:05:55;10.40;;;1.52;;
38499;SDS011;24269;51.894;4.622;2022-09-17T14:08:23;10.93;;;2.00;;
38499;SDS011;24269;51.894;4.622;2022-09-17T14:10:53;10.45;;;1.65;;
38499;SDS011;24269;51.894;4.622;2022-09-17T14:13:25;12.13;;;2.38;;
38499;SDS011;24269;51.894;4.622;2022-09-17T14:15:53;10.43;;;1.67;;
38499;SDS011;24269;51.894;4.622;2022-09-17T14:20:52;14.40;;;2.28;;
38499;SDS011;24269;51.894;4.622;2022-09-17T14:23:50;12.27;;;2.10;;
38499;SDS011;24269;51.894;4.622;2022-09-17T14:26:36;12.63;;;1.75;;
38499;SDS011;24269;51.894;4.622;2022-09-17T14:31:38;14.07;;;1.85;;
38499;SDS011;24269;51.894;4.622;2022-09-17T14:34:05;10.35;;;1.70;;
38499;SDS011;24269;51.894;4.622;2022-09-17T14:36:36;13.00;;;1.92;;
38499;SDS011;24269;51.894;4.622;2022-09-17T14:39:03;10.85;;;1.75;;
38499;SDS011;24269;51.894;4.622;2022-09-17T14:41:35;7.47;;;1.50;;
38499;SDS011;24269;51.894;4.622;2022-09-17T14:44:07;9.65;;;1.90;;
38499;SDS011;24269;51.894;4.622;2022-09-17T14:47:24;10.95;;;1.58;;
38499;SDS011;24269;51.894;4.622;2022-09-17T14:49:36;10.38;;;1.40;;
38499;SDS011;24269;51.894;4.622;2022-09-17T14:57:41;7.38;;;1.23;;
38499;SDS011;24269;51.894;4.622;2022-09-17T15:00:16;9.07;;;1.30;;
38499;SDS011;24269;51.894;4.622;2022-09-17T15:02:48;9.38;;;1.20;;
38499;SDS011;24269;51.894;4.622;2022-09-17T15:08:06;9.48;;;1.40;;
38499;SDS011;24269;51.894;4.622;2022-09-17T15:10:35;10.75;;;1.30;;
38499;SDS011;24269;51.894;4.622;2022-09-17T15:13:14;8.82;;;1.10;;
38499;SDS011;24269;51.894;4.622;2022-09-17T15:15:50;9.23;;;1.20;;
38499;SDS011;24269;51.894;4.622;2022-09-17T15:18:24;8.90;;;1.35;;
38499;SDS011;24269;51.894;4.622;2022-09-17T15:20:56;8.68;;;1.70;;
38499;SDS011;24269;51.894;4.622;2022-09-17T15:23:25;10.02;;;1.20;;
38499;SDS011;24269;51.894;4.622;2022-09-17T15:25:53;12.90;;;1.70;;
38499;SDS011;24269;51.894;4.622;2022-09-17T15:31:20;9.05;;;1.52;;
38499;SDS011;24269;51.894;4.622;2022-09-17T15:33:46;14.30;;;2.28;;
38499;SDS011;24269;51.894;4.622;2022-09-17T15:36:25;11.10;;;2.22;;
38499;SDS011;24269;51.894;4.622;2022-09-17T15:38:52;10.73;;;1.70;;
38499;SDS011;24269;51.894;4.622;2022-09-17T15:41:33;9.48;;;1.23;;
38499;SDS011;24269;51.894;4.622;2022-09-17T15:46:46;11.68;;;1.60;;
38499;SDS011;24269;51.894;4.622;2022-09-17T15:49:28;8.57;;;1.80;;
38499;SDS011;24269;51.894;4.622;2022-09-17T15:52:17;9.35;;;2.13;;
38499;SDS011;24269;51.894;4.622;2022-09-17T15:54:58;10.85;;;2.08;;
38499;SDS011;24269;51.894;4.622;2022-09-17T15:57:25;10.50;;;2.00;;
38499;SDS011;24269;51.894;4.622;2022-09-17T15:59:53;9.10;;;1.80;;
38499;SDS011;24269;51.894;4.622;2022-09-17T16:02:29;7.40;;;1.48;;
38499;SDS011;24269;51.894;4.622;2022-09-17T16:05:42;8.75;;;1.48;;
38499;SDS011;24269;51.894;4.622;2022-09-17T16:07:45;8.65;;;1.27;;
38499;SDS011;24269;51.894;4.622;2022-09-17T16:10:11;9.05;;;1.40;;
38499;SDS011;24269;51.894;4.622;2022-09-17T16:12:38;10.10;;;1.20;;
38499;SDS011;24269;51.894;4.622;2022-09-17T16:15:04;10.75;;;1.45;;
38499;SDS011;24269;51.894;4.622;2022-09-17T16:20:04;14.40;;;2.50;;
38499;SDS011;24269;51.894;4.622;2022-09-17T16:22:32;11.05;;;1.75;;
38499;SDS011;24269;51.894;4.622;2022-09-17T16:24:58;8.52;;;1.48;;
38499;SDS011;24269;51.894;4.622;2022-09-17T16:27:25;8.82;;;1.27;;
38499;SDS011;24269;51.894;4.622;2022-09-17T16:29:56;7.28;;;1.35;;
38499;SDS011;24269;51.894;4.622;2022-09-17T16:32:29;9.55;;;1.20;;
38499;SDS011;24269;51.894;4.622;2022-09-17T16:34:55;11.68;;;1.60;;
38499;SDS011;24269;51.894;4.622;2022-09-17T16:37:20;7.20;;;1.33;;
38499;SDS011;24269;51.894;4.622;2022-09-17T16:39:46;4.25;;;1.00;;
38499;SDS011;24269;51.894;4.622;2022-09-17T16:42:12;7.00;;;1.05;;
38499;SDS011;24269;51.894;4.622;2022-09-17T16:44:37;7.78;;;0.95;;
38499;SDS011;24269;51.894;4.622;2022-09-17T16:47:03;8.27;;;1.27;;
38499;SDS011;24269;51.894;4.622;2022-09-17T16:49:29;7.80;;;1.10;;
38499;SDS011;24269;51.894;4.622;2022-09-17T16:51:54;8.45;;;1.10;;
38499;SDS011;24269;51.894;4.622;2022-09-17T16:54:20;8.15;;;1.42;;
38499;SDS011;24269;51.894;4.622;2022-09-17T16:56:45;7.82;;;0.80;;
38499;SDS011;24269;51.894;4.622;2022-09-17T16:59:12;7.97;;;1.20;;
38499;SDS011;24269;51.894;4.622;2022-09-17T17:01:38;8.35;;;1.48;;
38499;SDS011;24269;51.894;4.622;2022-09-17T17:04:03;12.45;;;1.90;;
38499;SDS011;24269;51.894;4.622;2022-09-17T17:06:29;7.72;;;1.50;;
38499;SDS011;24269;51.894;4.622;2022-09-17T17:08:56;10.02;;;1.45;;
38499;SDS011;24269;51.894;4.622;2022-09-17T17:11:25;6.53;;;1.10;;
38499;SDS011;24269;51.894;4.622;2022-09-17T17:13:52;10.38;;;1.48;;
38499;SDS011;24269;51.894;4.622;2022-09-17T17:16:20;10.80;;;1.60;;
38499;SDS011;24269;51.894;4.622;2022-09-17T17:18:47;6.40;;;1.20;;
38499;SDS011;24269;51.894;4.622;2022-09-17T17:21:15;11.82;;;1.50;;
38499;SDS011;24269;51.894;4.622;2022-09-17T17:23:40;8.63;;;1.48;;
38499;SDS011;24269;51.894;4.622;2022-09-17T17:26:07;7.88;;;1.42;;
38499;SDS011;24269;51.894;4.622;2022-09-17T17:28:33;14.90;;;5.50;;
38499;SDS011;24269;51.894;4.622;2022-09-17T17:31:00;10.07;;;2.28;;
38499;SDS011;24269;51.894;4.622;2022-09-17T17:33:27;15.25;;;4.45;;
38499;SDS011;24269;51.894;4.622;2022-09-17T17:35:53;16.42;;;5.30;;
38499;SDS011;24269;51.894;4.622;2022-09-17T17:38:19;12.13;;;2.15;;
38499;SDS011;24269;51.894;4.622;2022-09-17T17:40:45;9.43;;;1.48;;
38499;SDS011;24269;51.894;4.622;2022-09-17T17:43:11;8.70;;;1.05;;
38499;SDS011;24269;51.894;4.622;2022-09-17T17:45:37;6.60;;;1.30;;
38499;SDS011;24269;51.894;4.622;2022-09-17T17:48:04;8.55;;;1.42;;
38499;SDS011;24269;51.894;4.622;2022-09-17T17:50:30;6.40;;;1.05;;
38499;SDS011;24269;51.894;4.622;2022-09-17T17:52:56;8.82;;;1.90;;
38499;SDS011;24269;51.894;4.622;2022-09-17T17:55:22;14.23;;;2.05;;
38499;SDS011;24269;51.894;4.622;2022-09-17T17:57:53;9.45;;;1.70;;
38499;SDS011;24269;51.894;4.622;2022-09-17T18:02:45;10.10;;;2.00;;
38499;SDS011;24269;51.894;4.622;2022-09-17T18:05:10;8.10;;;1.83;;
38499;SDS011;24269;51.894;4.622;2022-09-17T18:07:36;8.82;;;1.88;;
38499;SDS011;24269;51.894;4.622;2022-09-17T18:10:02;8.25;;;1.50;;
38499;SDS011;24269;51.894;4.622;2022-09-17T18:12:27;11.82;;;1.52;;
38499;SDS011;24269;51.894;4.622;2022-09-17T18:14:53;7.22;;;1.42;;
38499;SDS011;24269;51.894;4.622;2022-09-17T18:17:18;8.75;;;2.10;;
38499;SDS011;24269;51.894;4.622;2022-09-17T18:19:44;15.18;;;2.80;;
38499;SDS011;24269;51.894;4.622;2022-09-17T18:22:10;11.20;;;1.88;;